createdAt,value
2023-06-19T00:01:20.872Z,4.63
2023-06-19T00:03:48.617Z,4.07
2023-06-19T00:06:16.362Z,4.55
2023-06-19T00:09:02.148Z,4.50
2023-06-19T00:11:29.908Z,4.10
2023-06-19T00:13:58.932Z,4.43
2023-06-19T00:16:27.186Z,4.47
2023-06-19T00:18:56.730Z,4.27
2023-06-19T00:21:25.501Z,4.53
2023-06-19T00:23:53.730Z,4.10
2023-06-19T00:26:23.507Z,4.80
2023-06-19T00:28:51.375Z,4.57
2023-06-19T00:31:20.716Z,4.70
2023-06-19T00:33:49.210Z,4.32
2023-06-19T00:36:21.109Z,4.65
2023-06-19T00:38:49.444Z,4.13
2023-06-19T00:41:17.902Z,4.40
2023-06-19T00:43:46.210Z,4.68
2023-06-19T00:46:14.339Z,4.60
2023-06-19T00:48:43.589Z,4.43
2023-06-19T00:51:11.524Z,4.50
2023-06-19T00:53:39.220Z,4.95
2023-06-19T00:56:07.677Z,4.00
2023-06-19T00:58:36.254Z,4.50
2023-06-19T01:01:09.377Z,4.80
2023-06-19T01:03:38.560Z,5.22
2023-06-19T01:06:12.837Z,4.22
2023-06-19T01:08:47.858Z,4.40
2023-06-19T01:11:26.853Z,4.70
2023-06-19T01:13:59.340Z,4.50
2023-06-19T01:16:27.779Z,4.60
2023-06-19T01:18:55.694Z,4.50
2023-06-19T01:21:25.009Z,4.13
2023-06-19T01:23:54.113Z,4.32
2023-06-19T01:26:27.507Z,4.75
2023-06-19T01:28:56.558Z,3.83
2023-06-19T01:31:27.696Z,5.30
2023-06-19T01:33:56.371Z,4.40
2023-06-19T01:36:26.118Z,4.57
2023-06-19T01:38:57.063Z,4.63
2023-06-19T01:41:25.079Z,4.23
2023-06-19T01:43:53.696Z,4.70
2023-06-19T01:46:21.844Z,4.40
2023-06-19T01:48:49.641Z,4.38
2023-06-19T01:51:18.243Z,3.90
2023-06-19T01:53:45.909Z,4.32
2023-06-19T01:56:15.026Z,4.25
2023-06-19T01:58:42.718Z,4.00
2023-06-19T02:01:10.410Z,4.22
2023-06-19T02:03:38.210Z,4.30
2023-06-19T02:06:06.081Z,3.97
2023-06-19T02:11:20.800Z,3.80
2023-06-19T02:13:48.470Z,4.30
2023-06-19T02:16:16.664Z,4.30
2023-06-19T02:18:44.401Z,3.97
2023-06-19T02:21:12.168Z,3.78
2023-06-19T02:23:39.892Z,3.87
2023-06-19T02:26:07.578Z,4.13
2023-06-19T02:28:36.624Z,3.67
2023-06-19T02:31:04.416Z,4.03
2023-06-19T02:33:33.533Z,3.97
2023-06-19T02:36:01.307Z,3.67
2023-06-19T02:38:30.605Z,3.90
2023-06-19T02:41:01.592Z,3.80
2023-06-19T02:43:29.319Z,3.78
2023-06-19T02:45:58.553Z,4.20
2023-06-19T02:48:26.521Z,4.13
2023-06-19T02:50:54.190Z,4.30
2023-06-19T02:53:21.864Z,4.23
2023-06-19T02:55:49.550Z,3.85
2023-06-19T02:58:17.245Z,4.18
2023-06-19T03:00:45.030Z,3.73
2023-06-19T03:03:14.354Z,3.83
2023-06-19T03:05:42.811Z,4.28
2023-06-19T03:08:10.551Z,4.15
2023-06-19T03:10:38.345Z,4.00
2023-06-19T03:13:06.030Z,3.85
2023-06-19T03:15:33.774Z,3.75
2023-06-19T03:18:04.449Z,4.20
2023-06-19T03:20:33.879Z,3.80
2023-06-19T03:23:01.577Z,4.30
2023-06-19T03:25:34.667Z,4.30
2023-06-19T03:28:02.632Z,4.13
2023-06-19T03:30:30.328Z,4.60
2023-06-19T03:32:58.069Z,4.03
2023-06-19T03:35:25.772Z,4.07
2023-06-19T03:37:55.229Z,4.57
2023-06-19T03:40:23.849Z,3.83
2023-06-19T03:42:51.782Z,3.83
2023-06-19T03:45:19.470Z,4.18
2023-06-19T03:47:47.186Z,3.93
2023-06-19T03:50:21.393Z,3.83
2023-06-19T03:52:50.033Z,4.15
2023-06-19T03:55:19.818Z,4.15
2023-06-19T03:57:47.580Z,4.10
2023-06-19T04:00:16.741Z,4.25
2023-06-19T04:02:44.497Z,4.18
2023-06-19T04:05:12.221Z,3.97
2023-06-19T04:07:39.941Z,4.75
2023-06-19T04:10:09.233Z,4.57
2023-06-19T04:12:38.333Z,4.63
2023-06-19T04:15:07.116Z,4.70
2023-06-19T04:17:34.894Z,4.43
2023-06-19T04:20:02.642Z,4.45
2023-06-19T04:22:30.322Z,4.82
2023-06-19T04:24:58.010Z,4.43
2023-06-19T04:27:25.692Z,4.35
2023-06-19T04:29:54.835Z,4.03
2023-06-19T04:32:23.045Z,4.45
2023-06-19T04:34:50.791Z,4.18
2023-06-19T04:37:20.202Z,4.53
2023-06-19T04:39:48.120Z,4.20
2023-06-19T04:42:20.634Z,3.97
2023-06-19T04:44:48.460Z,4.32
2023-06-19T04:47:19.750Z,3.97
2023-06-19T04:49:47.768Z,3.72
2023-06-19T04:52:15.591Z,3.30
2023-06-19T04:54:43.260Z,3.78
2023-06-19T04:57:30.933Z,3.90
2023-06-19T04:59:58.974Z,3.77
2023-06-19T05:02:28.196Z,4.00
2023-06-19T05:04:55.891Z,3.67
2023-06-19T05:07:23.901Z,3.40
2023-06-19T05:09:51.577Z,3.80
2023-06-19T05:12:19.307Z,3.70
2023-06-19T05:14:46.996Z,3.47
2023-06-19T05:17:14.801Z,3.88
2023-06-19T05:19:44.256Z,3.45
2023-06-19T05:22:11.913Z,3.70
2023-06-19T05:24:39.931Z,3.67
2023-06-19T05:27:08.336Z,2.80
2023-06-19T05:29:36.150Z,3.42
2023-06-19T05:32:04.202Z,3.42
2023-06-19T05:34:31.933Z,3.90
2023-06-19T05:37:04.627Z,3.10
2023-06-19T05:39:32.339Z,3.58
2023-06-19T05:42:00.209Z,3.55
2023-06-19T05:44:28.126Z,3.30
2023-06-19T05:47:00.603Z,3.35
2023-06-19T05:49:28.313Z,2.67
2023-06-19T05:52:00.097Z,2.90
2023-06-19T05:54:29.363Z,4.13
2023-06-19T05:56:57.035Z,3.60
2023-06-19T05:59:27.744Z,2.97
2023-06-19T06:01:56.797Z,2.83
2023-06-19T06:04:24.630Z,2.50
2023-06-19T06:06:52.542Z,2.90
2023-06-19T06:09:21.639Z,3.30
2023-06-19T06:11:50.863Z,2.90
2023-06-19T06:14:19.132Z,2.45
2023-06-19T06:16:46.961Z,2.17
2023-06-19T06:19:15.158Z,2.72
2023-06-19T06:21:42.909Z,2.17
2023-06-19T06:24:10.679Z,2.00
2023-06-19T06:26:38.914Z,1.67
2023-06-19T06:29:08.076Z,2.03
2023-06-19T06:31:36.005Z,1.75
2023-06-19T06:34:03.733Z,1.50
2023-06-19T06:39:03.882Z,1.10
2023-06-19T06:41:31.926Z,1.65
2023-06-19T06:43:59.816Z,1.92
2023-06-19T06:46:29.246Z,1.67
2023-06-19T06:48:56.979Z,1.77
2023-06-19T06:51:24.781Z,2.70
2023-06-19T06:53:52.919Z,2.05
2023-06-19T06:56:20.994Z,1.83
2023-06-19T06:58:49.173Z,1.88
2023-06-19T07:01:17.154Z,2.00
2023-06-19T07:03:46.525Z,2.17
2023-06-19T07:06:14.356Z,1.75
2023-06-19T07:08:42.531Z,1.63
2023-06-19T07:11:10.268Z,1.70
2023-06-19T07:13:37.933Z,1.50
2023-06-19T07:16:06.128Z,2.22
2023-06-19T07:18:34.564Z,2.00
2023-06-19T07:21:03.717Z,1.80
2023-06-19T07:23:31.402Z,1.77
2023-06-19T07:26:00.259Z,1.50
2023-06-19T07:28:28.284Z,1.60
2023-06-19T07:30:55.955Z,1.60
2023-06-19T07:33:23.569Z,2.90
2023-06-19T07:35:51.437Z,1.65
2023-06-19T07:38:20.549Z,1.35
2023-06-19T07:40:48.392Z,1.27
2023-06-19T07:43:16.385Z,1.25
2023-06-19T07:45:44.167Z,1.25
2023-06-19T07:48:11.936Z,1.17
2023-06-19T07:50:39.600Z,1.23
2023-06-19T07:53:07.505Z,1.00
2023-06-19T07:55:36.802Z,1.23
2023-06-19T07:58:04.556Z,1.10
2023-06-19T08:00:49.062Z,1.30
2023-06-19T08:03:16.808Z,1.10
2023-06-19T08:05:44.774Z,1.23
2023-06-19T08:08:15.228Z,1.00
2023-06-19T08:10:44.340Z,1.40
2023-06-19T08:13:12.757Z,1.25
2023-06-19T08:15:40.382Z,1.17
2023-06-19T08:18:08.078Z,1.00
2023-06-19T08:20:35.735Z,1.20
2023-06-19T08:23:05.168Z,0.98
2023-06-19T08:25:34.249Z,1.30
2023-06-19T08:28:03.921Z,1.10
2023-06-19T08:30:31.795Z,1.25
2023-06-19T08:32:59.412Z,1.10
2023-06-19T08:35:27.222Z,0.93
2023-06-19T08:37:57.305Z,1.10
2023-06-19T08:40:25.749Z,1.20
2023-06-19T08:42:54.694Z,1.05
2023-06-19T08:45:24.084Z,1.23
2023-06-19T08:47:52.102Z,1.00
2023-06-19T08:50:21.716Z,1.10
2023-06-19T08:52:49.598Z,0.90
2023-06-19T08:55:17.340Z,1.35
2023-06-19T08:57:45.225Z,1.20
2023-06-19T09:00:13.892Z,1.02
2023-06-19T09:02:44.459Z,1.30
2023-06-19T09:05:14.545Z,1.07
2023-06-19T09:07:42.493Z,1.10
2023-06-19T09:10:17.023Z,1.40
2023-06-19T09:12:45.568Z,1.15
2023-06-19T09:15:14.245Z,1.17
2023-06-19T09:17:43.356Z,1.20
2023-06-19T09:20:12.808Z,1.25
2023-06-19T09:22:40.639Z,1.42
2023-06-19T09:25:11.349Z,1.27
2023-06-19T09:27:39.110Z,1.15
2023-06-19T09:30:09.137Z,1.30
2023-06-19T09:32:37.564Z,1.20
2023-06-19T09:35:07.565Z,1.40
2023-06-19T09:37:35.850Z,1.35
2023-06-19T09:40:10.969Z,1.10
2023-06-19T09:42:43.486Z,1.15
2023-06-19T09:45:13.215Z,1.40
2023-06-19T09:47:42.060Z,1.10
2023-06-19T09:50:14.534Z,1.67
2023-06-19T09:52:42.591Z,1.55
2023-06-19T09:55:13.898Z,1.20
2023-06-19T09:57:42.839Z,1.30
2023-06-19T10:00:13.668Z,1.10
2023-06-19T10:02:51.306Z,1.23
2023-06-19T10:05:31.447Z,1.02
2023-06-19T10:08:01.117Z,1.55
2023-06-19T10:10:33.154Z,1.10
2023-06-19T10:13:13.950Z,1.40
2023-06-19T10:15:43.520Z,1.40
2023-06-19T10:18:17.318Z,1.35
2023-06-19T10:20:47.768Z,1.17
2023-06-19T10:23:20.227Z,1.40
2023-06-19T10:25:50.338Z,1.33
2023-06-19T10:28:19.321Z,1.50
2023-06-19T10:30:47.388Z,1.60
2023-06-19T10:33:15.068Z,1.60
2023-06-19T10:35:43.170Z,1.30
2023-06-19T10:38:12.506Z,1.20
2023-06-19T10:40:40.534Z,1.40
2023-06-19T10:43:08.253Z,1.30
2023-06-19T10:45:36.097Z,1.40
2023-06-19T10:48:05.234Z,1.60
2023-06-19T10:50:37.189Z,1.40
2023-06-19T10:53:05.109Z,1.10
2023-06-19T10:55:36.456Z,1.60
2023-06-19T10:58:04.532Z,1.90
2023-06-19T11:00:34.960Z,1.73
2023-06-19T11:03:02.730Z,1.65
2023-06-19T11:05:31.000Z,1.67
2023-06-19T11:07:59.999Z,1.75
2023-06-19T11:10:29.292Z,1.45
2023-06-19T11:12:59.896Z,1.70
2023-06-19T11:15:31.824Z,1.85
2023-06-19T11:18:00.147Z,1.70
2023-06-19T11:20:28.006Z,1.60
2023-06-19T11:23:01.992Z,1.73
2023-06-19T11:25:37.927Z,1.92
2023-06-19T11:28:08.089Z,1.73
2023-06-19T11:31:00.486Z,1.80
2023-06-19T11:33:28.355Z,1.52
2023-06-19T11:35:56.783Z,1.77
2023-06-19T11:38:25.802Z,1.70
2023-06-19T11:40:54.301Z,1.92
2023-06-19T11:43:30.876Z,1.80
2023-06-19T11:46:04.010Z,1.60
2023-06-19T11:48:31.815Z,1.70
2023-06-19T11:50:59.918Z,2.15
2023-06-19T11:53:27.675Z,1.77
2023-06-19T11:55:55.544Z,1.70
2023-06-19T11:58:23.841Z,1.90
2023-06-19T12:00:53.268Z,1.83
2023-06-19T12:03:21.231Z,1.55
2023-06-19T12:05:49.160Z,1.57
2023-06-19T12:08:17.094Z,1.98
2023-06-19T12:10:44.968Z,1.80
2023-06-19T12:13:18.757Z,2.15
2023-06-19T12:15:47.089Z,2.13
2023-06-19T12:18:17.892Z,2.13
2023-06-19T12:20:45.960Z,1.80
2023-06-19T12:23:23.108Z,1.77
2023-06-19T12:25:51.265Z,2.00
2023-06-19T12:28:19.818Z,1.73
2023-06-19T12:30:49.338Z,2.25
2023-06-19T12:33:19.308Z,2.85
2023-06-19T12:35:47.498Z,1.93
2023-06-19T12:38:15.439Z,2.20
2023-06-19T12:40:43.771Z,2.10
2023-06-19T12:43:11.451Z,2.38
2023-06-19T12:45:39.079Z,2.60
2023-06-19T12:48:07.173Z,2.00
2023-06-19T12:50:36.639Z,2.10
2023-06-19T12:53:04.766Z,2.08
2023-06-19T12:55:32.604Z,2.42
2023-06-19T12:58:00.286Z,2.55
2023-06-19T13:00:27.933Z,2.38
2023-06-19T13:02:55.781Z,2.83
2023-06-19T13:05:23.836Z,2.50
2023-06-19T13:07:53.044Z,2.30
2023-06-19T13:10:20.794Z,2.63
2023-06-19T13:12:48.783Z,2.40
2023-06-19T13:15:16.821Z,2.35
2023-06-19T13:17:44.508Z,2.42
2023-06-19T13:20:12.647Z,2.60
2023-06-19T13:22:56.740Z,2.10
2023-06-19T13:25:24.907Z,2.40
2023-06-19T13:27:52.710Z,2.38
2023-06-19T13:30:20.731Z,2.53
2023-06-19T13:32:48.622Z,3.35
2023-06-19T13:35:16.467Z,2.65
2023-06-19T13:37:44.708Z,2.85
2023-06-19T13:40:14.641Z,2.42
2023-06-19T13:42:42.312Z,2.40
2023-06-19T13:45:10.536Z,2.78
2023-06-19T13:47:39.615Z,2.70
2023-06-19T13:50:08.757Z,2.67
2023-06-19T13:52:37.459Z,2.78
2023-06-19T13:55:05.991Z,2.97
2023-06-19T13:57:35.114Z,2.50
2023-06-19T14:00:04.208Z,2.00
2023-06-19T14:02:32.228Z,2.30
2023-06-19T14:05:01.064Z,2.53
2023-06-19T14:07:28.912Z,2.90
2023-06-19T14:09:56.645Z,2.97
2023-06-19T14:12:24.320Z,3.30
2023-06-19T14:14:54.019Z,3.20
2023-06-19T14:17:22.623Z,2.53
2023-06-19T14:19:52.105Z,2.80
2023-06-19T14:22:20.252Z,2.67
2023-06-19T14:24:48.368Z,2.40
2023-06-19T14:27:16.180Z,3.10
2023-06-19T14:29:43.848Z,2.72
2023-06-19T14:32:13.380Z,2.50
2023-06-19T14:34:41.185Z,2.17
2023-06-19T14:37:09.303Z,3.13
2023-06-19T14:39:37.231Z,3.20
2023-06-19T14:42:05.283Z,3.38
2023-06-19T14:44:35.207Z,3.10
2023-06-19T14:47:02.938Z,3.22
2023-06-19T14:49:32.314Z,2.90
2023-06-19T14:52:00.012Z,2.92
2023-06-19T14:54:27.792Z,2.83
2023-06-19T14:56:55.451Z,2.97
2023-06-19T14:59:23.298Z,3.20
2023-06-19T15:01:51.754Z,2.87
2023-06-19T15:04:19.865Z,3.00
2023-06-19T15:06:49.035Z,2.47
2023-06-19T15:09:16.758Z,3.10
2023-06-19T15:11:44.408Z,2.50
2023-06-19T15:14:12.311Z,2.78
2023-06-19T15:16:40.288Z,2.75
2023-06-19T15:19:08.318Z,2.90
2023-06-19T15:21:39.428Z,2.50
2023-06-19T15:24:09.676Z,2.78
2023-06-19T15:26:58.229Z,2.67
2023-06-19T15:29:26.147Z,2.70
2023-06-19T15:31:54.094Z,2.38
2023-06-19T15:34:21.751Z,2.67
2023-06-19T15:36:49.743Z,2.57
2023-06-19T15:39:18.784Z,2.63
2023-06-19T15:41:47.497Z,2.53
2023-06-19T15:44:16.000Z,2.53
2023-06-19T15:46:44.053Z,2.70
2023-06-19T15:49:13.875Z,2.35
2023-06-19T15:51:41.771Z,2.13
2023-06-19T15:54:09.580Z,3.20
2023-06-19T15:56:40.457Z,2.40
2023-06-19T15:59:08.153Z,2.50
2023-06-19T16:01:35.892Z,2.60
2023-06-19T16:04:03.908Z,2.33
2023-06-19T16:06:31.764Z,2.65
2023-06-19T16:08:59.465Z,3.33
2023-06-19T16:11:27.266Z,3.15
2023-06-19T16:13:56.598Z,2.70
2023-06-19T16:16:24.399Z,2.47
2023-06-19T16:18:52.145Z,2.50
2023-06-19T16:21:19.847Z,2.90
2023-06-19T16:23:47.658Z,2.40
2023-06-19T16:26:16.023Z,2.40
2023-06-19T16:28:43.774Z,2.35
2023-06-19T16:31:13.229Z,2.33
2023-06-19T16:33:41.082Z,2.10
2023-06-19T16:36:11.248Z,2.22
2023-06-19T16:38:39.382Z,2.60
2023-06-19T16:41:07.433Z,2.67
2023-06-19T16:43:35.485Z,2.47
2023-06-19T16:46:03.573Z,2.78
2023-06-19T16:48:32.914Z,2.65
2023-06-19T16:51:01.062Z,2.50
2023-06-19T16:53:28.944Z,3.05
2023-06-19T16:55:57.769Z,2.78
2023-06-19T16:58:25.573Z,2.28
2023-06-19T17:00:53.624Z,2.72
2023-06-19T17:03:21.865Z,2.63
2023-06-19T17:08:48.882Z,3.00
2023-06-19T17:11:20.515Z,2.83
2023-06-19T17:13:49.079Z,2.90
2023-06-19T17:16:17.008Z,2.47
2023-06-19T17:18:44.957Z,2.58
2023-06-19T17:21:14.474Z,2.55
2023-06-19T17:23:42.228Z,3.05
2023-06-19T17:26:09.944Z,3.03
2023-06-19T17:28:37.882Z,2.60
2023-06-19T17:31:08.425Z,2.70
2023-06-19T17:33:36.578Z,3.15
2023-06-19T17:36:05.247Z,2.30
2023-06-19T17:38:35.633Z,2.37
2023-06-19T17:41:03.701Z,2.72
2023-06-19T17:43:31.395Z,2.50
2023-06-19T17:45:59.159Z,3.00
2023-06-19T17:48:27.203Z,2.85
2023-06-19T17:50:55.432Z,2.55
2023-06-19T17:53:23.506Z,3.00
2023-06-19T17:55:53.282Z,2.90
2023-06-19T17:58:22.642Z,2.63
2023-06-19T18:00:50.368Z,3.05
2023-06-19T18:03:18.199Z,3.03
2023-06-19T18:05:46.278Z,2.78
2023-06-19T18:08:14.043Z,2.65
2023-06-19T18:10:42.382Z,2.88
2023-06-19T18:13:11.628Z,2.50
2023-06-19T18:24:39.270Z,2.88
2023-06-19T18:27:07.807Z,2.80
2023-06-19T18:29:37.148Z,2.92
2023-06-19T18:32:05.393Z,2.70
2023-06-19T18:34:33.346Z,3.03
2023-06-19T18:37:01.304Z,2.50
2023-06-19T18:39:29.107Z,2.50
2023-06-19T18:41:56.813Z,2.80
2023-06-19T18:44:24.526Z,2.55
2023-06-19T18:46:53.591Z,3.00
2023-06-19T18:49:21.563Z,3.57
2023-06-19T18:51:49.262Z,2.75
2023-06-19T18:54:17.004Z,3.00
2023-06-19T18:56:44.767Z,3.33
2023-06-19T18:59:12.519Z,3.00
2023-06-19T19:01:40.646Z,3.13
2023-06-19T19:04:09.753Z,2.97
2023-06-19T19:06:37.702Z,3.03
2023-06-19T19:09:05.400Z,3.30
2023-06-19T19:11:33.516Z,2.80
2023-06-19T19:14:01.215Z,3.60
2023-06-19T19:16:29.070Z,3.45
2023-06-19T19:18:56.922Z,3.85
2023-06-19T19:21:25.981Z,3.63
2023-06-19T19:23:53.668Z,3.42
2023-06-19T19:26:21.477Z,3.67
2023-06-19T19:28:49.154Z,3.60
2023-06-19T19:31:16.875Z,3.55
2023-06-19T19:33:44.561Z,3.90
2023-06-19T19:36:12.417Z,4.47
2023-06-19T19:38:41.495Z,3.60
2023-06-19T19:41:09.566Z,4.22
2023-06-19T19:43:37.778Z,3.87
2023-06-19T19:46:05.639Z,3.83
2023-06-19T19:48:33.488Z,3.90
2023-06-19T19:51:01.185Z,3.65
2023-06-19T19:53:29.282Z,4.00
2023-06-19T19:55:58.486Z,4.00
2023-06-19T19:58:27.145Z,4.13
2023-06-19T20:00:54.922Z,4.27
2023-06-19T20:03:22.936Z,4.25
2023-06-19T20:05:50.735Z,4.78
2023-06-19T20:08:18.425Z,4.55
2023-06-19T20:10:46.668Z,4.45
2023-06-19T20:13:15.962Z,4.60
2023-06-19T20:15:43.687Z,4.70
2023-06-19T20:18:11.405Z,4.28
2023-06-19T20:20:39.154Z,4.22
2023-06-19T20:23:07.606Z,5.03
2023-06-19T20:25:36.520Z,5.00
2023-06-19T20:28:08.628Z,4.70
2023-06-19T20:30:56.599Z,4.60
2023-06-19T20:33:24.448Z,4.80
2023-06-19T20:35:52.538Z,4.57
2023-06-19T20:38:21.394Z,4.72
2023-06-19T20:40:49.668Z,5.13
2023-06-19T20:43:17.462Z,4.82
2023-06-19T20:45:45.134Z,4.90
2023-06-19T20:48:14.362Z,5.80
2023-06-19T20:50:42.071Z,4.85
2023-06-19T20:53:09.833Z,5.10
2023-06-19T20:55:37.732Z,5.38
2023-06-19T20:58:06.046Z,4.82
2023-06-19T21:00:34.462Z,5.20
2023-06-19T21:03:04.179Z,4.80
2023-06-19T21:05:33.493Z,4.68
2023-06-19T21:08:01.393Z,4.57
2023-06-19T21:10:29.565Z,5.28
2023-06-19T21:13:04.468Z,4.55
2023-06-19T21:15:38.545Z,5.57
2023-06-19T21:18:06.300Z,5.40
2023-06-19T21:20:35.431Z,4.72
2023-06-19T21:23:03.088Z,5.25
2023-06-19T21:25:30.944Z,4.80
2023-06-19T21:27:59.439Z,5.15
2023-06-19T21:30:27.356Z,5.47
2023-06-19T21:32:55.536Z,5.32
2023-06-19T21:35:23.398Z,5.00
2023-06-19T21:37:52.402Z,5.60
2023-06-19T21:40:20.002Z,5.10
2023-06-19T21:42:48.200Z,5.75
2023-06-19T21:45:19.150Z,5.37
2023-06-19T21:47:49.055Z,5.60
2023-06-19T21:50:20.742Z,5.70
2023-06-19T21:52:49.861Z,5.15
2023-06-19T21:55:19.188Z,5.50
2023-06-19T21:57:59.396Z,5.93
2023-06-19T22:00:29.432Z,5.30
2023-06-19T22:02:57.959Z,5.63
2023-06-19T22:05:26.245Z,5.57
2023-06-19T22:07:54.500Z,6.28
2023-06-19T22:10:24.777Z,5.70
2023-06-19T22:12:53.042Z,6.40
2023-06-19T22:15:24.418Z,5.63
2023-06-19T22:17:52.454Z,5.07
2023-06-19T22:20:20.426Z,6.40
2023-06-19T22:22:48.790Z,6.40
2023-06-19T22:25:17.497Z,5.95
2023-06-19T22:30:22.166Z,6.07
2023-06-19T22:32:49.980Z,6.20
2023-06-19T22:35:17.657Z,5.87
2023-06-19T22:37:45.777Z,5.70
2023-06-19T22:40:14.453Z,5.90
2023-06-19T22:42:42.667Z,6.43
2023-06-19T22:45:11.808Z,6.70
2023-06-19T22:47:41.555Z,6.95
2023-06-19T22:50:10.884Z,7.10
2023-06-19T22:52:38.894Z,6.32
2023-06-19T22:55:07.267Z,6.10
2023-06-19T22:57:36.237Z,6.40
2023-06-19T23:00:08.852Z,6.75
2023-06-19T23:02:36.627Z,6.78
2023-06-19T23:05:06.570Z,6.18
2023-06-19T23:07:34.317Z,6.68
2023-06-19T23:10:03.412Z,6.65
2023-06-19T23:12:31.070Z,6.90
2023-06-19T23:14:58.794Z,6.65
2023-06-19T23:17:26.638Z,6.57
2023-06-19T23:19:59.401Z,6.70
2023-06-19T23:22:28.777Z,6.90
2023-06-19T23:24:56.467Z,7.57
2023-06-19T23:27:24.174Z,6.30
2023-06-19T23:29:52.748Z,6.97
2023-06-19T23:32:21.724Z,6.95
2023-06-19T23:34:50.037Z,7.15
2023-06-19T23:37:17.711Z,7.40
2023-06-19T23:39:46.917Z,7.13
2023-06-19T23:42:14.625Z,7.00
2023-06-19T23:44:42.300Z,7.88
2023-06-19T23:47:09.963Z,6.38
2023-06-19T23:49:39.257Z,8.23
2023-06-19T23:52:07.787Z,7.13
2023-06-19T23:54:35.442Z,7.32
2023-06-19T23:57:05.012Z,8.00
2023-06-19T23:59:32.654Z,7.37
